sensor_id;sensor_type;location;lat;lon;timestamp;pressure;altitude;pressure_sealevel;temperature;humidity
43663;BME280;74813;56.104;40.358;2023-12-20T00:00:52;97984.56;;;2.15;100.00
43663;BME280;74813;56.104;40.358;2023-12-20T00:03:24;97989.63;;;2.13;100.00
43663;BME280;74813;56.104;40.358;2023-12-20T00:05:56;97990.47;;;2.12;100.00
43663;BME280;74813;56.104;40.358;2023-12-20T00:08:29;97998.97;;;2.15;100.00
43663;BME280;74813;56.104;40.358;2023-12-20T00:11:01;98004.09;;;2.18;100.00
43663;BME280;74813;56.104;40.358;2023-12-20T00:13:34;98004.97;;;2.20;100.00
43663;BME280;74813;56.104;40.358;2023-12-20T00:16:06;97998.19;;;2.19;100.00
43663;BME280;74813;56.104;40.358;2023-12-20T00:18:38;98007.53;;;2.20;100.00
43663;BME280;74813;56.104;40.358;2023-12-20T00:21:10;98004.16;;;2.21;100.00
43663;BME280;74813;56.104;40.358;2023-12-20T00:23:43;97997.38;;;2.21;100.00
43663;BME280;74813;56.104;40.358;2023-12-20T00:26:15;98006.78;;;2.24;100.00
43663;BME280;74813;56.104;40.358;2023-12-20T00:28:47;98000.78;;;2.22;100.00
43663;BME280;74813;56.104;40.358;2023-12-20T00:31:20;97997.38;;;2.21;100.00
43663;BME280;74813;56.104;40.358;2023-12-20T00:33:52;98005.88;;;2.20;100.00
43663;BME280;74813;56.104;40.358;2023-12-20T00:36:24;98002.47;;;2.21;100.00
43663;BME280;74813;56.104;40.358;2023-12-20T00:38:57;98004.97;;;2.20;100.00
43663;BME280;74813;56.104;40.358;2023-12-20T00:41:29;98010.06;;;2.18;100.00
43663;BME280;74813;56.104;40.358;2023-12-20T00:44:01;98018.59;;;2.20;100.00
43663;BME280;74813;56.104;40.358;2023-12-20T00:46:33;98017.69;;;2.18;100.00
43663;BME280;74813;56.104;40.358;2023-12-20T00:49:06;98004.06;;;2.16;100.00
43663;BME280;74813;56.104;40.358;2023-12-20T00:51:38;98017.66;;;2.17;100.00
43663;BME280;74813;56.104;40.358;2023-12-20T00:54:10;98023.69;;;2.22;100.00
43663;BME280;74813;56.104;40.358;2023-12-20T00:56:43;98027.91;;;2.21;100.00
43663;BME280;74813;56.104;40.358;2023-12-20T00:59:16;98011.81;;;2.21;100.00
43663;BME280;74813;56.104;40.358;2023-12-20T01:01:49;98004.09;;;2.18;100.00
43663;BME280;74813;56.104;40.358;2023-12-20T01:04:21;98001.63;;;2.21;100.00
43663;BME280;74813;56.104;40.358;2023-12-20T01:06:53;98005.81;;;2.19;100.00
43663;BME280;74813;56.104;40.358;2023-12-20T01:09:25;98005.78;;;2.17;100.00
43663;BME280;74813;56.104;40.358;2023-12-20T01:11:58;98002.38;;;2.15;100.00
43663;BME280;74813;56.104;40.358;2023-12-20T01:14:30;98010.81;;;2.14;100.00
43663;BME280;74813;56.104;40.358;2023-12-20T01:17:02;98016.69;;;2.11;100.00
43663;BME280;74813;56.104;40.358;2023-12-20T01:19:35;98009.03;;;2.10;100.00
43663;BME280;74813;56.104;40.358;2023-12-20T01:22:07;98003.94;;;2.10;100.00
43663;BME280;74813;56.104;40.358;2023-12-20T01:24:39;98009.88;;;2.10;100.00
43663;BME280;74813;56.104;40.358;2023-12-20T01:27:11;98008.22;;;2.11;100.00
43663;BME280;74813;56.104;40.358;2023-12-20T01:29:44;98003.94;;;2.10;100.00
43663;BME280;74813;56.104;40.358;2023-12-20T01:32:16;97996.19;;;2.04;100.00
43663;BME280;74813;56.104;40.358;2023-12-20T01:34:48;97999.50;;;2.00;100.00
43663;BME280;74813;56.104;40.358;2023-12-20T01:37:21;97993.47;;;1.94;100.00
43663;BME280;74813;56.104;40.358;2023-12-20T01:39:53;97995.13;;;1.92;100.00
43663;BME280;74813;56.104;40.358;2023-12-20T01:42:25;97983.31;;;1.94;100.00
43663;BME280;74813;56.104;40.358;2023-12-20T01:44:58;97990.09;;;1.96;100.00
43663;BME280;74813;56.104;40.358;2023-12-20T01:47:30;97987.53;;;1.94;100.00
43663;BME280;74813;56.104;40.358;2023-12-20T01:50:03;97987.53;;;1.94;100.00
43663;BME280;74813;56.104;40.358;2023-12-20T01:52:36;97979.06;;;1.95;100.00
43663;BME280;74813;56.104;40.358;2023-12-20T01:55:09;97980.66;;;1.90;100.00
43663;BME280;74813;56.104;40.358;2023-12-20T01:57:42;97981.44;;;1.87;100.00
43663;BME280;74813;56.104;40.358;2023-12-20T02:00:15;97987.25;;;1.82;100.00
43663;BME280;74813;56.104;40.358;2023-12-20T02:02:47;97991.50;;;1.81;100.00
43663;BME280;74813;56.104;40.358;2023-12-20T02:05:20;98004.94;;;1.76;100.00
43663;BME280;74813;56.104;40.358;2023-12-20T02:07:53;98009.13;;;1.73;100.00
43663;BME280;74813;56.104;40.358;2023-12-20T02:10:26;98007.47;;;1.76;100.00
43663;BME280;74813;56.104;40.358;2023-12-20T02:12:58;98012.47;;;1.72;100.00
43663;BME280;74813;56.104;40.358;2023-12-20T02:15:31;98004.06;;;1.75;100.00
43663;BME280;74813;56.104;40.358;2023-12-20T02:18:04;98000.66;;;1.74;100.00
43663;BME280;74813;56.104;40.358;2023-12-20T02:20:56;97999.78;;;1.72;100.00
43663;BME280;74813;56.104;40.358;2023-12-20T02:23:29;97999.91;;;1.79;100.00
43663;BME280;74813;56.104;40.358;2023-12-20T02:26:02;97997.31;;;1.76;100.00
43663;BME280;74813;56.104;40.358;2023-12-20T02:28:35;97984.59;;;1.76;100.00
43663;BME280;74813;56.104;40.358;2023-12-20T02:31:07;97973.63;;;1.78;100.00
43663;BME280;74813;56.104;40.358;2023-12-20T02:33:40;97978.69;;;1.77;100.00
43663;BME280;74813;56.104;40.358;2023-12-20T02:36:12;97971.94;;;1.79;100.00
43663;BME280;74813;56.104;40.358;2023-12-20T02:38:44;97975.38;;;1.81;100.00
43663;BME280;74813;56.104;40.358;2023-12-20T02:41:17;97981.38;;;1.84;100.00
43663;BME280;74813;56.104;40.358;2023-12-20T02:43:49;97965.34;;;1.87;100.00
43663;BME280;74813;56.104;40.358;2023-12-20T02:46:23;97969.59;;;1.88;100.00
43663;BME280;74813;56.104;40.358;2023-12-20T02:48:55;97969.56;;;1.86;100.00
43663;BME280;74813;56.104;40.358;2023-12-20T02:51:27;97965.34;;;1.87;100.00
43663;BME280;74813;56.104;40.358;2023-12-20T02:53:59;97962.81;;;1.87;100.00
43663;BME280;74813;56.104;40.358;2023-12-20T02:56:32;97966.22;;;1.89;100.00
43663;BME280;74813;56.104;40.358;2023-12-20T02:59:05;97974.63;;;1.86;100.00
43663;BME280;74813;56.104;40.358;2023-12-20T03:01:45;97968.78;;;1.89;100.00
43663;BME280;74813;56.104;40.358;2023-12-20T03:04:17;97962.81;;;1.87;100.00
43663;BME280;74813;56.104;40.358;2023-12-20T03:06:49;97968.69;;;1.86;100.00
43663;BME280;74813;56.104;40.358;2023-12-20T03:09:22;97969.53;;;1.85;100.00
43663;BME280;74813;56.104;40.358;2023-12-20T03:11:54;97975.38;;;1.81;100.00
43663;BME280;74813;56.104;40.358;2023-12-20T03:14:26;97971.13;;;1.80;100.00
43663;BME280;74813;56.104;40.358;2023-12-20T03:16:59;97966.81;;;1.76;100.00
43663;BME280;74813;56.104;40.358;2023-12-20T03:19:31;97987.91;;;1.73;100.00
43663;BME280;74813;56.104;40.358;2023-12-20T03:22:03;97965.03;;;1.73;100.00
43663;BME280;74813;56.104;40.358;2023-12-20T03:24:35;97976.09;;;1.73;100.00
43663;BME280;74813;56.104;40.358;2023-12-20T03:27:08;97965.91;;;1.73;100.00
43663;BME280;74813;56.104;40.358;2023-12-20T03:29:40;97970.09;;;1.71;100.00
43663;BME280;74813;56.104;40.358;2023-12-20T03:32:12;97974.34;;;1.72;100.00
43663;BME280;74813;56.104;40.358;2023-12-20T03:34:45;97975.22;;;1.73;100.00
43663;BME280;74813;56.104;40.358;2023-12-20T03:37:17;97968.44;;;1.72;100.00
43663;BME280;74813;56.104;40.358;2023-12-20T03:39:49;97961.66;;;1.72;100.00
43663;BME280;74813;56.104;40.358;2023-12-20T03:42:21;97966.69;;;1.71;100.00
43663;BME280;74813;56.104;40.358;2023-12-20T03:44:54;97975.16;;;1.71;100.00
43663;BME280;74813;56.104;40.358;2023-12-20T03:47:26;97971.81;;;1.72;100.00
43663;BME280;74813;56.104;40.358;2023-12-20T03:49:58;97987.94;;;1.74;100.00
43663;BME280;74813;56.104;40.358;2023-12-20T03:52:31;97971.78;;;1.71;100.00
43663;BME280;74813;56.104;40.358;2023-12-20T03:55:03;97981.91;;;1.69;100.00
43663;BME280;74813;56.104;40.358;2023-12-20T03:57:35;97978.50;;;1.69;100.00
43663;BME280;74813;56.104;40.358;2023-12-20T04:00:08;97993.72;;;1.67;100.00
43663;BME280;74813;56.104;40.358;2023-12-20T04:02:41;97994.59;;;1.68;100.00
43663;BME280;74813;56.104;40.358;2023-12-20T04:05:14;97993.81;;;1.70;100.00
43663;BME280;74813;56.104;40.358;2023-12-20T04:07:46;97998.88;;;1.70;100.00
43663;BME280;74813;56.104;40.358;2023-12-20T04:10:18;97987.91;;;1.73;100.00
43663;BME280;74813;56.104;40.358;2023-12-20T04:12:51;98002.31;;;1.72;100.00
43663;BME280;74813;56.104;40.358;2023-12-20T04:15:23;98000.66;;;1.74;100.00
43663;BME280;74813;56.104;40.358;2023-12-20T04:17:55;98009.19;;;1.77;100.00
43663;BME280;74813;56.104;40.358;2023-12-20T04:20:28;98004.97;;;1.77;100.00
43663;BME280;74813;56.104;40.358;2023-12-20T04:23:00;97994.75;;;1.76;100.00
43663;BME280;74813;56.104;40.358;2023-12-20T04:25:32;97999.09;;;1.80;100.00
43663;BME280;74813;56.104;40.358;2023-12-20T04:28:05;98007.53;;;1.79;100.00
43663;BME280;74813;56.104;40.358;2023-12-20T04:30:37;98006.63;;;1.77;100.00
43663;BME280;74813;56.104;40.358;2023-12-20T04:33:09;97994.84;;;1.80;100.00
43663;BME280;74813;56.104;40.358;2023-12-20T04:35:41;97989.75;;;1.80;100.00
43663;BME280;74813;56.104;40.358;2023-12-20T04:38:14;98009.25;;;1.80;100.00
43663;BME280;74813;56.104;40.358;2023-12-20T04:40:46;98020.28;;;1.80;100.00
43663;BME280;74813;56.104;40.358;2023-12-20T04:43:18;97998.25;;;1.79;100.00
43663;BME280;74813;56.104;40.358;2023-12-20T04:45:51;98003.31;;;1.79;100.00
43663;BME280;74813;56.104;40.358;2023-12-20T04:48:23;97999.94;;;1.80;100.00
43663;BME280;74813;56.104;40.358;2023-12-20T04:50:55;97997.34;;;1.79;100.00
43663;BME280;74813;56.104;40.358;2023-12-20T04:53:27;98004.16;;;1.80;100.00
43663;BME280;74813;56.104;40.358;2023-12-20T04:56:00;98001.63;;;1.80;100.00
43663;BME280;74813;56.104;40.358;2023-12-20T04:58:32;97996.53;;;1.80;100.00
43663;BME280;74813;56.104;40.358;2023-12-20T05:01:06;98009.25;;;1.80;100.00
43663;BME280;74813;56.104;40.358;2023-12-20T05:03:38;98013.41;;;1.76;100.00
43663;BME280;74813;56.104;40.358;2023-12-20T05:06:10;98011.72;;;1.77;100.00
43663;BME280;74813;56.104;40.358;2023-12-20T05:08:43;98017.63;;;1.76;100.00
43663;BME280;74813;56.104;40.358;2023-12-20T05:11:15;98030.31;;;1.74;100.00
43663;BME280;74813;56.104;40.358;2023-12-20T05:13:47;98015.91;;;1.74;100.00
43663;BME280;74813;56.104;40.358;2023-12-20T05:16:20;98015.13;;;1.77;100.00
43663;BME280;74813;56.104;40.358;2023-12-20T05:18:52;98013.50;;;1.79;100.00
43663;BME280;74813;56.104;40.358;2023-12-20T05:21:24;98012.59;;;1.77;100.00
43663;BME280;74813;56.104;40.358;2023-12-20T05:23:56;98006.59;;;1.75;100.00
43663;BME280;74813;56.104;40.358;2023-12-20T05:26:29;97997.41;;;1.80;100.00
43663;BME280;74813;56.104;40.358;2023-12-20T05:29:01;97997.34;;;1.79;100.00
43663;BME280;74813;56.104;40.358;2023-12-20T05:31:33;97994.84;;;1.80;100.00
43663;BME280;74813;56.104;40.358;2023-12-20T05:34:05;97999.97;;;1.82;100.00
43663;BME280;74813;56.104;40.358;2023-12-20T05:36:38;97999.97;;;1.82;100.00
43663;BME280;74813;56.104;40.358;2023-12-20T05:39:10;98020.28;;;1.80;100.00
43663;BME280;74813;56.104;40.358;2023-12-20T05:41:42;98020.34;;;1.83;100.00
43663;BME280;74813;56.104;40.358;2023-12-20T05:44:15;98017.75;;;1.82;100.00
43663;BME280;74813;56.104;40.358;2023-12-20T05:46:47;98004.94;;;1.76;100.00
43663;BME280;74813;56.104;40.358;2023-12-20T05:49:19;98015.91;;;1.74;100.00
43663;BME280;74813;56.104;40.358;2023-12-20T05:51:51;97999.78;;;1.72;100.00
43663;BME280;74813;56.104;40.358;2023-12-20T05:54:24;97996.34;;;1.70;100.00
43663;BME280;74813;56.104;40.358;2023-12-20T05:56:56;98010.75;;;1.71;100.00
43663;BME280;74813;56.104;40.358;2023-12-20T05:59:28;98015.09;;;1.76;100.00
43663;BME280;74813;56.104;40.358;2023-12-20T06:02:03;98021.13;;;1.81;100.00
43663;BME280;74813;56.104;40.358;2023-12-20T06:04:35;98013.50;;;1.79;100.00
43663;BME280;74813;56.104;40.358;2023-12-20T06:07:08;98013.53;;;1.82;100.00
43663;BME280;74813;56.104;40.358;2023-12-20T06:09:40;98028.91;;;1.87;100.00
43663;BME280;74813;56.104;40.358;2023-12-20T06:12:12;98034.78;;;1.86;100.00
43663;BME280;74813;56.104;40.358;2023-12-20T06:14:45;98033.22;;;1.91;100.00
43663;BME280;74813;56.104;40.358;2023-12-20T06:17:17;98029.06;;;1.94;100.00
43663;BME280;74813;56.104;40.358;2023-12-20T06:19:49;98018.03;;;1.94;100.00
43663;BME280;74813;56.104;40.358;2023-12-20T06:22:21;98034.19;;;1.96;100.00
43663;BME280;74813;56.104;40.358;2023-12-20T06:24:54;98029.13;;;1.98;100.00
43663;BME280;74813;56.104;40.358;2023-12-20T06:27:26;98018.97;;;1.98;100.00
43663;BME280;74813;56.104;40.358;2023-12-20T06:29:58;98027.53;;;2.03;100.00
43663;BME280;74813;56.104;40.358;2023-12-20T06:32:30;98033.66;;;2.11;100.00
43663;BME280;74813;56.104;40.358;2023-12-20T06:35:03;98023.44;;;2.09;100.00
43663;BME280;74813;56.104;40.358;2023-12-20T06:37:36;98010.72;;;2.09;100.00
43663;BME280;74813;56.104;40.358;2023-12-20T06:40:09;98015.88;;;2.14;100.00
43663;BME280;74813;56.104;40.358;2023-12-20T06:42:42;98021.88;;;2.15;100.00
43663;BME280;74813;56.104;40.358;2023-12-20T06:45:14;98015.97;;;2.17;100.00
43663;BME280;74813;56.104;40.358;2023-12-20T06:47:46;98026.22;;;2.22;100.00
43663;BME280;74813;56.104;40.358;2023-12-20T06:50:19;98016.09;;;2.23;100.00
43663;BME280;74813;56.104;40.358;2023-12-20T06:52:51;98034.81;;;2.27;100.00
43663;BME280;74813;56.104;40.358;2023-12-20T06:55:23;98032.25;;;2.27;100.00
43663;BME280;74813;56.104;40.358;2023-12-20T06:57:56;98026.41;;;2.29;100.00
43663;BME280;74813;56.104;40.358;2023-12-20T07:00:28;98036.72;;;2.37;100.00
43663;BME280;74813;56.104;40.358;2023-12-20T07:03:00;98041.81;;;2.37;100.00
43663;BME280;74813;56.104;40.358;2023-12-20T07:05:32;98035.00;;;2.36;100.00
43663;BME280;74813;56.104;40.358;2023-12-20T07:08:05;98049.38;;;2.34;100.00
43663;BME280;74813;56.104;40.358;2023-12-20T07:10:37;98046.78;;;2.32;100.00
43663;BME280;74813;56.104;40.358;2023-12-20T07:13:10;98033.31;;;2.37;100.00
43663;BME280;74813;56.104;40.358;2023-12-20T07:15:42;98041.75;;;2.34;100.00
43663;BME280;74813;56.104;40.358;2023-12-20T07:18:14;98054.50;;;2.36;100.00
43663;BME280;74813;56.104;40.358;2023-12-20T07:20:47;98051.09;;;2.37;100.00
43663;BME280;74813;56.104;40.358;2023-12-20T07:23:19;98052.81;;;2.36;100.00
43663;BME280;74813;56.104;40.358;2023-12-20T07:25:51;98055.38;;;2.38;100.00
43663;BME280;74813;56.104;40.358;2023-12-20T07:28:23;98055.47;;;2.41;100.00
43663;BME280;74813;56.104;40.358;2023-12-20T07:30:56;98044.41;;;2.39;100.00
43663;BME280;74813;56.104;40.358;2023-12-20T07:33:28;98065.63;;;2.42;100.00
43663;BME280;74813;56.104;40.358;2023-12-20T07:36:00;98053.03;;;2.47;100.00
43663;BME280;74813;56.104;40.358;2023-12-20T07:38:33;98051.41;;;2.50;100.00
43663;BME280;74813;56.104;40.358;2023-12-20T07:41:05;98057.44;;;2.56;100.00
43663;BME280;74813;56.104;40.358;2023-12-20T07:43:38;98062.69;;;2.63;100.00
43663;BME280;74813;56.104;40.358;2023-12-20T07:46:10;98054.19;;;2.63;100.00
43663;BME280;74813;56.104;40.358;2023-12-20T07:48:42;98052.50;;;2.63;100.00
43663;BME280;74813;56.104;40.358;2023-12-20T07:51:15;98061.72;;;2.58;100.00
43663;BME280;74813;56.104;40.358;2023-12-20T07:53:47;98061.00;;;2.64;100.00
43663;BME280;74813;56.104;40.358;2023-12-20T07:56:19;98071.00;;;2.55;100.00
43663;BME280;74813;56.104;40.358;2023-12-20T07:58:52;98065.13;;;2.59;100.00
43663;BME280;74813;56.104;40.358;2023-12-20T08:01:24;98071.03;;;2.56;100.00
43663;BME280;74813;56.104;40.358;2023-12-20T08:03:56;98058.34;;;2.58;100.00
43663;BME280;74813;56.104;40.358;2023-12-20T08:06:28;98075.44;;;2.65;100.00
43663;BME280;74813;56.104;40.358;2023-12-20T08:09:01;98076.41;;;2.71;100.00
43663;BME280;74813;56.104;40.358;2023-12-20T08:11:33;98082.34;;;2.72;100.00
43663;BME280;74813;56.104;40.358;2023-12-20T08:14:05;98087.47;;;2.74;100.00
43663;BME280;74813;56.104;40.358;2023-12-20T08:16:38;98073.00;;;2.71;100.00
43663;BME280;74813;56.104;40.358;2023-12-20T08:19:10;98080.66;;;2.71;100.00
43663;BME280;74813;56.104;40.358;2023-12-20T08:21:42;98078.88;;;2.67;100.00
43663;BME280;74813;56.104;40.358;2023-12-20T08:24:15;98070.38;;;2.68;100.00
43663;BME280;74813;56.104;40.358;2023-12-20T08:26:47;98084.00;;;2.70;100.00
43663;BME280;74813;56.104;40.358;2023-12-20T08:29:19;98084.00;;;2.70;100.00
43663;BME280;74813;56.104;40.358;2023-12-20T08:31:52;98085.72;;;2.71;100.00
43663;BME280;74813;56.104;40.358;2023-12-20T08:34:25;98077.28;;;2.74;100.00
43663;BME280;74813;56.104;40.358;2023-12-20T08:36:57;98078.94;;;2.71;100.00
43663;BME280;74813;56.104;40.358;2023-12-20T08:39:29;98088.28;;;2.71;100.00
43663;BME280;74813;56.104;40.358;2023-12-20T08:42:02;98077.25;;;2.70;100.00
43663;BME280;74813;56.104;40.358;2023-12-20T08:44:34;98084.03;;;2.71;100.00
43663;BME280;74813;56.104;40.358;2023-12-20T08:47:06;98100.22;;;2.75;100.00
43663;BME280;74813;56.104;40.358;2023-12-20T08:49:39;98103.59;;;2.72;100.00
43663;BME280;74813;56.104;40.358;2023-12-20T08:52:11;98090.91;;;2.74;100.00
43663;BME280;74813;56.104;40.358;2023-12-20T08:54:43;98088.22;;;2.68;100.00
43663;BME280;74813;56.104;40.358;2023-12-20T08:57:16;98098.34;;;2.66;100.00
43663;BME280;74813;56.104;40.358;2023-12-20T08:59:48;98106.00;;;2.65;100.00
43663;BME280;74813;56.104;40.358;2023-12-20T09:02:20;98097.47;;;2.63;100.00
43663;BME280;74813;56.104;40.358;2023-12-20T09:04:52;98091.56;;;2.65;100.00
43663;BME280;74813;56.104;40.358;2023-12-20T09:07:26;98105.41;;;2.78;100.00
43663;BME280;74813;56.104;40.358;2023-12-20T09:09:58;98096.28;;;2.89;100.00
43663;BME280;74813;56.104;40.358;2023-12-20T09:12:31;98095.59;;;2.98;100.00
43663;BME280;74813;56.104;40.358;2023-12-20T09:15:03;98094.69;;;2.95;100.00
43663;BME280;74813;56.104;40.358;2023-12-20T09:17:36;98102.19;;;2.88;100.00
43663;BME280;74813;56.104;40.358;2023-12-20T09:20:09;98108.34;;;3.00;100.00
43663;BME280;74813;56.104;40.358;2023-12-20T09:22:41;98093.19;;;3.06;100.00
43663;BME280;74813;56.104;40.358;2023-12-20T09:25:13;98099.22;;;3.13;100.00
43663;BME280;74813;56.104;40.358;2023-12-20T09:27:46;98091.59;;;3.13;100.00
43663;BME280;74813;56.104;40.358;2023-12-20T09:30:18;98108.41;;;3.03;100.00
43663;BME280;74813;56.104;40.358;2023-12-20T09:32:51;98092.03;;;2.90;100.00
43663;BME280;74813;56.104;40.358;2023-12-20T09:35:23;98090.91;;;2.74;100.00
43663;BME280;74813;56.104;40.358;2023-12-20T09:37:55;98092.38;;;2.64;100.00
43663;BME280;74813;56.104;40.358;2023-12-20T09:40:29;98100.81;;;2.62;100.00
43663;BME280;74813;56.104;40.358;2023-12-20T09:43:04;98091.47;;;2.59;100.00
43663;BME280;74813;56.104;40.358;2023-12-20T09:45:38;98093.09;;;2.57;100.00
43663;BME280;74813;56.104;40.358;2023-12-20T09:48:11;98089.66;;;2.54;100.00
43663;BME280;74813;56.104;40.358;2023-12-20T09:50:43;98077.66;;;2.49;100.00
43663;BME280;74813;56.104;40.358;2023-12-20T09:53:17;98082.00;;;2.54;100.00
43663;BME280;74813;56.104;40.358;2023-12-20T09:55:52;98090.47;;;2.52;100.00
43663;BME280;74813;56.104;40.358;2023-12-20T09:58:37;98080.34;;;2.57;100.00
43663;BME280;74813;56.104;40.358;2023-12-20T10:01:09;98075.25;;;2.56;100.00
43663;BME280;74813;56.104;40.358;2023-12-20T10:03:42;98078.00;;;2.65;100.00
43663;BME280;74813;56.104;40.358;2023-12-20T10:06:14;98087.44;;;2.70;100.00
43663;BME280;74813;56.104;40.358;2023-12-20T10:08:46;98086.53;;;2.68;100.00
43663;BME280;74813;56.104;40.358;2023-12-20T10:11:19;98087.41;;;2.69;100.00
43663;BME280;74813;56.104;40.358;2023-12-20T10:13:51;98090.91;;;2.76;100.00
43663;BME280;74813;56.104;40.358;2023-12-20T10:16:25;98099.59;;;2.87;100.00
43663;BME280;74813;56.104;40.358;2023-12-20T10:18:58;98093.72;;;2.89;100.00
43663;BME280;74813;56.104;40.358;2023-12-20T10:21:30;98097.09;;;2.88;100.00
43663;BME280;74813;56.104;40.358;2023-12-20T10:24:02;98097.91;;;2.86;100.00
43663;BME280;74813;56.104;40.358;2023-12-20T10:26:35;98091.88;;;2.82;100.00
43663;BME280;74813;56.104;40.358;2023-12-20T10:29:07;98094.38;;;2.79;100.00
43663;BME280;74813;56.104;40.358;2023-12-20T10:31:39;98089.19;;;2.75;100.00
43663;BME280;74813;56.104;40.358;2023-12-20T10:34:12;98096.72;;;2.70;100.00
43663;BME280;74813;56.104;40.358;2023-12-20T10:36:44;98094.19;;;2.70;100.00
43663;BME280;74813;56.104;40.358;2023-12-20T10:39:17;98093.38;;;2.71;100.00
43663;BME280;74813;56.104;40.358;2023-12-20T10:41:49;98088.28;;;2.71;100.00
43663;BME280;74813;56.104;40.358;2023-12-20T10:44:22;98092.53;;;2.72;100.00
43663;BME280;74813;56.104;40.358;2023-12-20T10:46:54;98084.00;;;2.70;100.00
43663;BME280;74813;56.104;40.358;2023-12-20T10:49:28;98104.38;;;2.70;100.00
43663;BME280;74813;56.104;40.358;2023-12-20T10:52:02;98097.69;;;2.75;100.00
43663;BME280;74813;56.104;40.358;2023-12-20T10:54:36;98101.00;;;2.71;100.00
43663;BME280;74813;56.104;40.358;2023-12-20T10:57:08;98104.47;;;2.75;100.00
43663;BME280;74813;56.104;40.358;2023-12-20T10:59:41;98099.47;;;2.79;100.00
43663;BME280;74813;56.104;40.358;2023-12-20T11:02:14;98109.88;;;2.91;100.00
43663;BME280;74813;56.104;40.358;2023-12-20T11:04:51;98103.06;;;2.90;100.00
43663;BME280;74813;56.104;40.358;2023-12-20T11:07:39;98102.34;;;2.98;100.00
43663;BME280;74813;56.104;40.358;2023-12-20T11:10:38;98108.38;;;3.01;100.00
43663;BME280;74813;56.104;40.358;2023-12-20T11:13:20;98100.72;;;3.01;100.00
43663;BME280;74813;56.104;40.358;2023-12-20T11:15:54;98106.47;;;2.89;100.00
43663;BME280;74813;56.104;40.358;2023-12-20T11:18:30;98113.34;;;2.95;100.00
43663;BME280;74813;56.104;40.358;2023-12-20T11:21:06;98113.25;;;2.89;100.00
43663;BME280;74813;56.104;40.358;2023-12-20T11:23:38;98114.91;;;2.88;100.00
43663;BME280;74813;56.104;40.358;2023-12-20T11:26:11;98112.31;;;2.85;100.00
43663;BME280;74813;56.104;40.358;2023-12-20T11:28:43;98101.22;;;2.82;100.00
43663;BME280;74813;56.104;40.358;2023-12-20T11:31:15;98102.06;;;2.82;100.00
43663;BME280;74813;56.104;40.358;2023-12-20T11:33:48;98102.88;;;2.81;100.00
43663;BME280;74813;56.104;40.358;2023-12-20T11:36:25;98108.13;;;2.87;100.00
43663;BME280;74813;56.104;40.358;2023-12-20T11:38:57;98103.66;;;2.77;100.00
43663;BME280;74813;56.104;40.358;2023-12-20T11:41:32;98114.81;;;2.82;100.00
43663;BME280;74813;56.104;40.358;2023-12-20T11:44:04;98110.38;;;2.74;100.00
43663;BME280;74813;56.104;40.358;2023-12-20T11:46:37;98114.63;;;2.73;100.00
43663;BME280;74813;56.104;40.358;2023-12-20T11:49:09;98126.41;;;2.68;100.00
43663;BME280;74813;56.104;40.358;2023-12-20T11:51:41;98121.31;;;2.68;100.00
43663;BME280;74813;56.104;40.358;2023-12-20T11:54:15;98145.09;;;2.70;100.00
43663;BME280;74813;56.104;40.358;2023-12-20T11:56:47;98130.72;;;2.70;100.00
43663;BME280;74813;56.104;40.358;2023-12-20T11:59:20;98123.09;;;2.74;100.00
43663;BME280;74813;56.104;40.358;2023-12-20T12:01:52;98147.69;;;2.71;100.00
43663;BME280;74813;56.104;40.358;2023-12-20T12:04:25;98129.00;;;2.71;100.00
43663;BME280;74813;56.104;40.358;2023-12-20T12:06:57;98128.91;;;2.65;100.00
43663;BME280;74813;56.104;40.358;2023-12-20T12:09:29;98133.16;;;2.66;100.00
43663;BME280;74813;56.104;40.358;2023-12-20T12:12:02;98129.66;;;2.62;100.00
43663;BME280;74813;56.104;40.358;2023-12-20T12:14:35;98128.00;;;2.63;100.00
43663;BME280;74813;56.104;40.358;2023-12-20T12:17:11;98130.56;;;2.63;100.00
43663;BME280;74813;56.104;40.358;2023-12-20T12:19:43;98126.16;;;2.56;100.00
43663;BME280;74813;56.104;40.358;2023-12-20T12:22:16;98140.50;;;2.52;100.00
43663;BME280;74813;56.104;40.358;2023-12-20T12:24:48;98141.34;;;2.52;100.00
43663;BME280;74813;56.104;40.358;2023-12-20T12:27:20;98148.06;;;2.49;100.00
43663;BME280;74813;56.104;40.358;2023-12-20T12:30:04;98143.09;;;2.55;100.00
43663;BME280;74813;56.104;40.358;2023-12-20T12:32:38;98142.94;;;2.47;100.00
43663;BME280;74813;56.104;40.358;2023-12-20T12:35:11;98148.84;;;2.45;100.00
43663;BME280;74813;56.104;40.358;2023-12-20T12:37:43;98154.81;;;2.47;100.00
43663;BME280;74813;56.104;40.358;2023-12-20T12:40:17;98160.81;;;2.50;100.00
43663;BME280;74813;56.104;40.358;2023-12-20T12:42:49;98153.19;;;2.50;100.00
43663;BME280;74813;56.104;40.358;2023-12-20T12:45:21;98151.44;;;2.48;100.00
43663;BME280;74813;56.104;40.358;2023-12-20T12:47:54;98147.25;;;2.50;100.00
43663;BME280;74813;56.104;40.358;2023-12-20T12:50:26;98171.03;;;2.52;100.00
43663;BME280;74813;56.104;40.358;2023-12-20T12:52:58;98164.25;;;2.52;100.00
43663;BME280;74813;56.104;40.358;2023-12-20T12:55:30;98171.09;;;2.54;100.00
43663;BME280;74813;56.104;40.358;2023-12-20T12:58:03;98172.75;;;2.53;100.00
43663;BME280;74813;56.104;40.358;2023-12-20T13:00:35;98189.78;;;2.56;100.00
43663;BME280;74813;56.104;40.358;2023-12-20T13:03:08;98185.59;;;2.58;100.00
43663;BME280;74813;56.104;40.358;2023-12-20T13:05:40;98185.59;;;2.58;100.00
43663;BME280;74813;56.104;40.358;2023-12-20T13:08:13;98188.13;;;2.58;100.00
43663;BME280;74813;56.104;40.358;2023-12-20T13:10:45;98183.06;;;2.59;100.00
43663;BME280;74813;56.104;40.358;2023-12-20T13:13:18;98192.38;;;2.59;100.00
43663;BME280;74813;56.104;40.358;2023-12-20T13:15:50;98197.53;;;2.62;100.00
43663;BME280;74813;56.104;40.358;2023-12-20T13:18:23;98193.25;;;2.61;100.00